createdAt,value
2018-12-03T00:01:20.331Z,1.54
2018-12-03T00:03:55.356Z,1.57
2018-12-03T00:06:29.012Z,1.58
2018-12-03T00:09:00.633Z,1.56
2018-12-03T00:11:33.613Z,1.62
2018-12-03T00:14:05.729Z,1.61
2018-12-03T00:16:37.417Z,1.60
2018-12-03T00:19:10.066Z,1.53
2018-12-03T00:21:41.875Z,1.49
2018-12-03T00:24:13.596Z,1.49
2018-12-03T00:26:45.344Z,1.51
2018-12-03T00:29:17.055Z,1.48
2018-12-03T00:31:48.858Z,1.43
2018-12-03T00:34:20.816Z,1.40
2018-12-03T00:36:52.657Z,1.37
2018-12-03T00:39:24.556Z,1.39
2018-12-03T00:41:56.366Z,1.45
2018-12-03T00:44:28.181Z,1.49
2018-12-03T00:47:00.001Z,1.52
2018-12-03T00:49:31.657Z,1.54
2018-12-03T00:52:03.471Z,1.63
2018-12-03T00:54:35.357Z,1.68
2018-12-03T00:57:07.220Z,1.69
2018-12-03T00:59:39.146Z,1.73
2018-12-03T01:02:26.870Z,1.71
2018-12-03T01:04:58.559Z,1.72
2018-12-03T01:07:30.389Z,1.76
2018-12-03T01:10:02.229Z,1.75
2018-12-03T01:12:35.088Z,1.77
2018-12-03T01:15:08.454Z,1.78
2018-12-03T01:17:40.289Z,1.81
2018-12-03T01:20:13.578Z,1.83
2018-12-03T01:22:45.336Z,1.82
2018-12-03T01:25:17.077Z,1.81
2018-12-03T01:27:48.866Z,1.85
2018-12-03T01:30:20.514Z,1.89
2018-12-03T01:32:52.248Z,1.87
2018-12-03T01:35:24.003Z,1.83
2018-12-03T01:37:55.884Z,1.82
2018-12-03T01:40:27.564Z,1.81
2018-12-03T01:42:59.313Z,1.81
2018-12-03T01:45:30.969Z,1.79
2018-12-03T01:48:02.690Z,1.78
2018-12-03T01:50:34.604Z,1.75
2018-12-03T01:53:06.408Z,1.75
2018-12-03T01:55:38.231Z,1.80
2018-12-03T01:58:09.995Z,1.79
2018-12-03T02:00:41.819Z,1.74
2018-12-03T02:03:13.692Z,1.77
2018-12-03T02:05:45.362Z,1.72
2018-12-03T02:08:17.069Z,1.75
2018-12-03T02:10:48.810Z,1.75
2018-12-03T02:13:20.579Z,1.76
2018-12-03T02:15:52.446Z,1.76
2018-12-03T02:18:24.277Z,1.68
2018-12-03T02:20:56.102Z,1.67
2018-12-03T02:23:27.800Z,1.65
2018-12-03T02:25:59.491Z,1.70
2018-12-03T02:28:31.321Z,1.64
2018-12-03T02:31:03.043Z,1.70
2018-12-03T02:33:34.842Z,1.62
2018-12-03T02:36:06.749Z,1.62
2018-12-03T02:38:38.532Z,1.68
2018-12-03T02:41:10.259Z,1.74
2018-12-03T02:43:41.999Z,1.74
2018-12-03T02:46:13.690Z,1.76
2018-12-03T02:48:45.561Z,1.77
2018-12-03T02:51:17.241Z,1.78
2018-12-03T02:53:48.932Z,1.74
2018-12-03T02:56:20.651Z,1.76
2018-12-03T02:58:52.381Z,1.76
2018-12-03T03:01:24.109Z,1.84
2018-12-03T03:03:55.772Z,1.82
2018-12-03T03:06:27.608Z,1.76
2018-12-03T03:08:59.378Z,1.69
2018-12-03T03:11:31.210Z,1.73
2018-12-03T03:14:02.881Z,1.60
2018-12-03T03:16:34.698Z,1.61
2018-12-03T03:19:06.473Z,1.70
2018-12-03T03:21:38.325Z,1.71
2018-12-03T03:24:10.019Z,1.76
2018-12-03T03:26:42.042Z,1.78
2018-12-03T03:29:14.035Z,1.84
2018-12-03T03:31:45.881Z,1.91
2018-12-03T03:34:17.719Z,1.83
2018-12-03T03:36:49.507Z,1.86
2018-12-03T03:39:21.310Z,1.77
2018-12-03T03:41:53.158Z,1.75
2018-12-03T03:44:24.919Z,1.57
2018-12-03T03:46:56.824Z,1.47
2018-12-03T03:49:29.860Z,1.44
2018-12-03T03:52:01.709Z,1.37
2018-12-03T03:54:33.458Z,1.30
2018-12-03T03:57:05.303Z,1.27
2018-12-03T03:59:37.165Z,1.23
2018-12-03T04:02:08.909Z,1.20
2018-12-03T04:04:40.612Z,1.25
2018-12-03T04:07:12.289Z,1.27
2018-12-03T04:09:44.099Z,1.30
2018-12-03T04:12:15.852Z,1.32
2018-12-03T04:14:47.679Z,1.38
2018-12-03T04:17:19.474Z,1.42
2018-12-03T04:19:51.376Z,1.43
2018-12-03T04:22:23.192Z,1.41
2018-12-03T04:24:55.040Z,1.41
2018-12-03T04:27:26.730Z,1.35
2018-12-03T04:29:58.611Z,1.38
2018-12-03T04:32:30.345Z,1.32
2018-12-03T04:35:02.262Z,1.33
2018-12-03T04:37:34.047Z,1.33
2018-12-03T04:40:06.223Z,1.37
2018-12-03T04:42:37.950Z,1.45
2018-12-03T04:45:21.249Z,1.45
2018-12-03T04:47:53.207Z,1.48
2018-12-03T04:50:25.415Z,1.52
2018-12-03T04:52:57.155Z,1.60
2018-12-03T04:55:28.769Z,1.63
2018-12-03T04:58:00.494Z,1.72
2018-12-03T05:00:32.473Z,1.81
2018-12-03T05:03:04.118Z,1.96
2018-12-03T05:05:35.910Z,2.04
2018-12-03T05:08:07.928Z,2.07
2018-12-03T05:10:39.679Z,2.04
2018-12-03T05:13:11.419Z,1.95
2018-12-03T05:15:43.258Z,1.90
2018-12-03T05:18:14.977Z,1.78
2018-12-03T05:20:46.839Z,1.72
2018-12-03T05:23:18.597Z,1.69
2018-12-03T05:25:50.248Z,1.66
2018-12-03T05:28:22.374Z,1.64
2018-12-03T05:30:54.132Z,1.66
2018-12-03T05:33:25.913Z,1.66
2018-12-03T05:35:57.664Z,1.70
2018-12-03T05:38:29.560Z,1.76
2018-12-03T05:41:01.437Z,1.91
2018-12-03T05:43:33.127Z,2.06
2018-12-03T05:46:04.980Z,2.19
2018-12-03T05:48:37.597Z,2.29
2018-12-03T05:51:09.380Z,2.32
2018-12-03T05:53:41.333Z,2.37
2018-12-03T05:56:13.200Z,2.36
2018-12-03T05:58:44.897Z,2.33
2018-12-03T06:01:16.749Z,2.33
2018-12-03T06:03:48.418Z,2.28
2018-12-03T06:06:20.227Z,2.33
2018-12-03T06:08:52.079Z,2.24
2018-12-03T06:11:28.202Z,2.24
2018-12-03T06:14:00.108Z,2.22
2018-12-03T06:16:35.976Z,2.32
2018-12-03T06:19:14.758Z,2.35
2018-12-03T06:21:55.641Z,2.50
2018-12-03T06:24:27.676Z,2.59
2018-12-03T06:26:59.683Z,2.66
2018-12-03T06:29:38.096Z,2.72
2018-12-03T06:32:14.015Z,2.89
2018-12-03T06:34:49.101Z,2.97
2018-12-03T06:37:28.447Z,3.05
2018-12-03T06:42:46.919Z,3.18
2018-12-03T06:45:26.183Z,3.27
2018-12-03T06:48:11.842Z,3.35
2018-12-03T06:50:46.713Z,3.31
2018-12-03T06:53:25.590Z,3.30
2018-12-03T06:56:00.927Z,3.36
2018-12-03T06:58:38.759Z,3.33
2018-12-03T07:01:17.148Z,3.27
2018-12-03T07:03:57.917Z,3.22
2018-12-03T07:06:29.769Z,3.31
2018-12-03T07:09:06.369Z,3.31
2018-12-03T07:11:54.377Z,3.34
2018-12-03T07:14:37.236Z,3.38
2018-12-03T07:17:26.795Z,3.46
2018-12-03T07:20:02.390Z,3.52
2018-12-03T07:22:43.117Z,3.48
2018-12-03T07:25:21.840Z,3.54
2018-12-03T07:28:00.451Z,3.60
2018-12-03T07:30:39.205Z,3.59
2018-12-03T07:33:17.877Z,3.47
2018-12-03T07:35:53.895Z,3.53
2018-12-03T07:38:33.693Z,3.50
2018-12-03T07:41:09.455Z,3.49
2018-12-03T07:43:47.809Z,3.58
2018-12-03T07:46:26.777Z,3.63
2018-12-03T07:49:01.818Z,3.68
2018-12-03T07:51:39.936Z,3.74
2018-12-03T07:54:17.808Z,3.80
2018-12-03T07:56:56.106Z,3.81
2018-12-03T07:59:27.824Z,3.84
2018-12-03T08:01:59.653Z,3.88
2018-12-03T08:04:31.444Z,3.84
2018-12-03T08:07:03.354Z,3.90
2018-12-03T08:09:35.113Z,3.88
2018-12-03T08:12:07.063Z,3.99
2018-12-03T08:14:38.913Z,3.92
2018-12-03T08:17:10.524Z,3.97
2018-12-03T08:19:42.304Z,4.02
2018-12-03T08:22:15.128Z,4.07
2018-12-03T08:24:46.895Z,4.12
2018-12-03T08:27:18.725Z,4.17
2018-12-03T08:29:50.440Z,4.21
2018-12-03T08:32:22.425Z,4.28
2018-12-03T08:34:54.317Z,4.33
2018-12-03T08:37:25.969Z,4.37
2018-12-03T08:39:57.758Z,4.37
2018-12-03T08:42:29.654Z,4.38
2018-12-03T08:45:01.468Z,4.38
2018-12-03T08:47:33.327Z,4.38
2018-12-03T08:50:08.756Z,4.39
2018-12-03T08:52:40.486Z,4.46
2018-12-03T08:55:14.016Z,4.46
2018-12-03T08:57:45.746Z,4.47
2018-12-03T09:00:27.710Z,4.51
2018-12-03T09:03:28.556Z,4.51
2018-12-03T09:06:03.244Z,4.55
2018-12-03T09:08:34.902Z,4.57
2018-12-03T09:11:07.645Z,4.59
2018-12-03T09:13:39.535Z,4.59
2018-12-03T09:16:11.446Z,4.64
2018-12-03T09:18:43.688Z,4.71
2018-12-03T09:21:16.726Z,4.73
2018-12-03T09:23:53.945Z,4.76
2018-12-03T09:26:25.774Z,4.81
2018-12-03T09:28:57.530Z,4.82
2018-12-03T09:31:29.250Z,4.82
2018-12-03T09:34:01.575Z,4.82
2018-12-03T09:36:33.457Z,4.90
2018-12-03T09:39:17.296Z,4.99
2018-12-03T09:41:50.305Z,5.11
2018-12-03T09:44:21.994Z,5.05
2018-12-03T09:46:53.828Z,5.10
2018-12-03T09:49:25.598Z,5.20
2018-12-03T09:51:57.395Z,5.28
2018-12-03T09:54:29.153Z,5.40
2018-12-03T09:57:00.847Z,5.45
2018-12-03T09:59:32.498Z,5.50
2018-12-03T10:02:05.080Z,5.55
2018-12-03T10:04:39.579Z,5.61
2018-12-03T10:07:13.045Z,5.66
2018-12-03T10:09:44.678Z,5.72
2018-12-03T10:12:18.316Z,5.81
2018-12-03T10:14:49.940Z,5.87
2018-12-03T10:17:21.668Z,5.90
2018-12-03T10:19:53.527Z,5.87
2018-12-03T10:22:25.437Z,5.95
2018-12-03T10:24:57.256Z,6.00
2018-12-03T10:27:29.070Z,5.96
2018-12-03T10:30:02.645Z,5.97
2018-12-03T10:32:34.487Z,5.92
2018-12-03T10:35:06.717Z,5.99
2018-12-03T10:37:38.376Z,6.05
2018-12-03T10:40:20.932Z,6.11
2018-12-03T10:42:52.867Z,6.23
2018-12-03T10:45:26.264Z,6.27
2018-12-03T10:47:59.392Z,6.31
2018-12-03T10:50:31.100Z,6.27
2018-12-03T10:53:02.889Z,6.31
2018-12-03T10:55:38.206Z,6.39
2018-12-03T10:58:09.998Z,6.38
2018-12-03T11:00:58.719Z,6.53
2018-12-03T11:03:47.178Z,6.61
2018-12-03T11:06:23.245Z,6.67
2018-12-03T11:08:55.143Z,6.72
2018-12-03T11:11:27.054Z,6.76
2018-12-03T11:14:04.417Z,6.90
2018-12-03T11:16:38.433Z,6.88
2018-12-03T11:19:13.918Z,6.83
2018-12-03T11:21:46.559Z,6.81
2018-12-03T11:24:19.028Z,6.72
2018-12-03T11:26:52.469Z,6.61
2018-12-03T11:29:24.269Z,6.66
2018-12-03T11:31:56.536Z,6.64
2018-12-03T11:34:28.790Z,6.54
2018-12-03T11:37:02.112Z,6.50
2018-12-03T11:39:59.015Z,6.40
2018-12-03T11:42:36.303Z,6.32
2018-12-03T11:45:10.304Z,6.34
2018-12-03T11:47:42.049Z,6.29
2018-12-03T11:50:16.301Z,6.22
2018-12-03T11:52:48.133Z,6.18
2018-12-03T11:55:19.933Z,6.23
2018-12-03T11:57:51.765Z,6.19
2018-12-03T12:00:23.538Z,6.24
2018-12-03T12:02:55.687Z,6.20
2018-12-03T12:05:27.477Z,6.17
2018-12-03T12:07:59.226Z,6.19
2018-12-03T12:10:31.134Z,6.23
2018-12-03T12:13:04.771Z,6.26
2018-12-03T12:15:36.636Z,6.21
2018-12-03T12:18:08.388Z,6.16
2018-12-03T12:20:40.153Z,6.11
2018-12-03T12:23:11.943Z,5.97
2018-12-03T12:25:43.762Z,5.95
2018-12-03T12:28:15.491Z,5.90
2018-12-03T12:30:47.285Z,5.91
2018-12-03T12:33:18.946Z,5.95
2018-12-03T12:35:50.773Z,5.97
2018-12-03T12:38:22.547Z,6.01
2018-12-03T12:40:54.933Z,6.05
2018-12-03T12:43:26.786Z,6.00
2018-12-03T12:46:01.327Z,5.94
2018-12-03T12:48:33.058Z,5.90
2018-12-03T12:51:04.924Z,5.82
2018-12-03T12:53:36.724Z,5.78
2018-12-03T12:56:08.584Z,5.82
2018-12-03T12:58:40.315Z,5.74
2018-12-03T13:01:12.080Z,5.64
2018-12-03T13:06:41.456Z,5.55
2018-12-03T13:09:13.641Z,5.60
2018-12-03T13:11:49.322Z,5.61
2018-12-03T13:14:21.122Z,5.60
2018-12-03T13:16:52.955Z,5.52
2018-12-03T13:19:24.847Z,5.50
2018-12-03T13:21:56.633Z,5.46
2018-12-03T13:24:28.523Z,5.43
2018-12-03T13:27:00.304Z,5.40
2018-12-03T13:29:32.004Z,5.39
2018-12-03T13:32:22.343Z,5.34
2018-12-03T13:34:58.026Z,5.36
2018-12-03T13:37:29.840Z,5.36
2018-12-03T13:40:01.710Z,5.33
2018-12-03T13:42:33.606Z,5.31
2018-12-03T13:45:05.456Z,5.30
2018-12-03T13:47:56.576Z,5.19
2018-12-03T13:50:32.341Z,5.17
2018-12-03T13:53:07.443Z,5.11
2018-12-03T13:55:39.251Z,5.02
2018-12-03T13:58:10.947Z,4.96
2018-12-03T14:00:42.582Z,4.90
2018-12-03T14:03:16.964Z,4.93
2018-12-03T14:06:16.252Z,4.91
2018-12-03T14:09:16.863Z,4.93
2018-12-03T14:12:15.299Z,4.89
2018-12-03T14:15:27.843Z,4.85
2018-12-03T14:18:08.927Z,4.86
2018-12-03T14:20:43.503Z,4.83
2018-12-03T14:23:17.103Z,4.81
2018-12-03T14:25:48.944Z,4.88
2018-12-03T14:28:20.687Z,4.85
2018-12-03T14:30:52.370Z,4.82
2018-12-03T14:33:24.295Z,4.80
2018-12-03T14:35:55.972Z,4.74
2018-12-03T14:38:27.681Z,4.66
2018-12-03T14:40:59.504Z,4.67
2018-12-03T14:43:37.571Z,4.69
2018-12-03T14:46:09.374Z,4.75
2018-12-03T14:48:48.698Z,4.75
2018-12-03T14:51:28.782Z,4.68
2018-12-03T14:54:11.623Z,4.69
2018-12-03T14:56:43.420Z,4.57
2018-12-03T14:59:15.093Z,4.61
2018-12-03T15:01:46.845Z,4.56
2018-12-03T15:04:18.518Z,4.59
2018-12-03T15:06:50.285Z,4.53
2018-12-03T15:09:25.107Z,4.52
2018-12-03T15:11:56.942Z,4.51
2018-12-03T15:14:47.193Z,4.42
2018-12-03T15:17:18.874Z,4.42
2018-12-03T15:19:50.514Z,4.38
2018-12-03T15:22:22.452Z,4.35
2018-12-03T15:24:54.250Z,4.32
2018-12-03T15:27:25.989Z,4.29
2018-12-03T15:29:57.796Z,4.35
2018-12-03T15:32:29.482Z,4.36
2018-12-03T15:35:05.253Z,4.35
2018-12-03T15:37:37.073Z,4.33
2018-12-03T15:40:14.920Z,4.39
2018-12-03T15:42:50.830Z,4.39
2018-12-03T15:45:25.921Z,4.39
2018-12-03T15:47:57.733Z,4.42
2018-12-03T15:50:29.583Z,4.49
2018-12-03T15:53:04.958Z,4.43
2018-12-03T15:55:36.845Z,4.40
2018-12-03T15:58:19.074Z,4.41
2018-12-03T16:00:59.779Z,4.43
2018-12-03T16:03:31.664Z,4.47
2018-12-03T16:06:03.647Z,4.46
2018-12-03T16:08:35.393Z,4.41
2018-12-03T16:11:25.740Z,4.41
2018-12-03T16:14:00.423Z,4.47
2018-12-03T16:16:32.214Z,4.43
2018-12-03T16:19:04.043Z,4.45
2018-12-03T16:21:40.504Z,4.41
2018-12-03T16:24:12.382Z,4.53
2018-12-03T16:26:44.153Z,4.49
2018-12-03T16:29:34.527Z,4.50
2018-12-03T16:32:06.450Z,4.52
2018-12-03T16:34:44.736Z,4.60
2018-12-03T16:37:16.583Z,4.59
2018-12-03T16:39:48.610Z,4.60
2018-12-03T16:42:20.612Z,4.57
2018-12-03T16:44:55.883Z,4.61
2018-12-03T16:47:27.594Z,4.59
2018-12-03T16:49:59.395Z,4.58
2018-12-03T16:52:31.150Z,4.60
2018-12-03T16:55:03.003Z,4.64
2018-12-03T16:57:34.677Z,4.64
2018-12-03T17:00:09.787Z,4.56
2018-12-03T17:02:47.963Z,4.62
2018-12-03T17:05:19.667Z,4.57
2018-12-03T17:07:51.452Z,4.60
2018-12-03T17:10:27.172Z,4.64
2018-12-03T17:12:59.754Z,4.65
2018-12-03T17:15:49.964Z,4.64
2018-12-03T17:18:27.048Z,4.64
2018-12-03T17:21:21.330Z,4.65
2018-12-03T17:24:25.410Z,4.63
2018-12-03T17:26:57.382Z,4.64
2018-12-03T17:29:29.151Z,4.79
2018-12-03T17:32:00.954Z,4.81
2018-12-03T17:34:32.773Z,4.79
2018-12-03T17:37:23.363Z,4.77
2018-12-03T17:40:02.350Z,4.81
2018-12-03T17:42:34.157Z,4.82
2018-12-03T17:45:07.649Z,4.86
2018-12-03T17:47:45.674Z,4.84
2018-12-03T17:50:17.592Z,4.82
2018-12-03T17:52:52.723Z,4.78
2018-12-03T17:55:24.487Z,4.81
2018-12-03T17:58:04.242Z,4.82
2018-12-03T18:00:36.043Z,4.79
2018-12-03T18:03:13.773Z,4.89
2018-12-03T18:05:49.562Z,4.88
2018-12-03T18:11:11.264Z,4.92
2018-12-03T18:13:46.402Z,4.90
2018-12-03T18:16:18.282Z,4.90
2018-12-03T18:18:50.086Z,4.88
2018-12-03T18:21:21.934Z,4.87
2018-12-03T18:23:53.883Z,4.89
2018-12-03T18:26:25.685Z,4.89
2018-12-03T18:28:57.333Z,4.88
2018-12-03T18:31:29.159Z,4.85
2018-12-03T18:34:00.949Z,4.82
2018-12-03T18:36:32.756Z,4.84
2018-12-03T18:39:04.833Z,4.78
2018-12-03T18:41:39.295Z,4.77
2018-12-03T18:44:11.137Z,4.71
2018-12-03T18:46:42.974Z,4.73
2018-12-03T18:49:27.049Z,4.73
2018-12-03T18:51:58.715Z,4.81
2018-12-03T18:54:30.506Z,4.72
2018-12-03T18:57:02.304Z,4.71
2018-12-03T18:59:34.133Z,4.69
2018-12-03T19:02:05.935Z,4.69
2018-12-03T19:04:37.830Z,4.71
2018-12-03T19:07:09.605Z,4.80
2018-12-03T19:09:41.452Z,4.76
2018-12-03T19:12:13.184Z,4.73
2018-12-03T19:14:45.001Z,4.72
2018-12-03T19:17:16.794Z,4.71
2018-12-03T19:19:48.442Z,4.65
2018-12-03T19:22:20.214Z,4.65
2018-12-03T19:24:53.885Z,4.64
2018-12-03T19:27:25.646Z,4.68
2018-12-03T19:29:57.459Z,4.67
2018-12-03T19:32:31.097Z,4.61
2018-12-03T19:35:11.035Z,4.64
2018-12-03T19:37:44.708Z,4.59
2018-12-03T19:40:16.473Z,4.68
2018-12-03T19:42:48.248Z,4.64
2018-12-03T19:45:20.067Z,4.60
2018-12-03T19:47:51.819Z,4.62
2018-12-03T19:50:23.592Z,4.63
2018-12-03T19:52:56.375Z,4.58
2018-12-03T19:55:28.709Z,4.62
2018-12-03T19:58:18.436Z,4.61
2018-12-03T20:00:51.333Z,4.61
2018-12-03T20:03:23.386Z,4.67
2018-12-03T20:05:55.303Z,4.69
2018-12-03T20:08:27.056Z,4.71
2018-12-03T20:10:58.879Z,4.67
2018-12-03T20:13:30.771Z,4.70
2018-12-03T20:16:02.473Z,4.78
2018-12-03T20:18:34.331Z,4.82
2018-12-03T20:21:09.403Z,4.86
2018-12-03T20:23:50.486Z,4.86
2018-12-03T20:26:31.156Z,4.89
2018-12-03T20:29:36.354Z,4.90
2018-12-03T20:32:25.392Z,4.80
2018-12-03T20:35:25.040Z,4.75
2018-12-03T20:38:16.594Z,4.75
2018-12-03T20:41:14.514Z,4.75
2018-12-03T20:43:47.004Z,4.81
2018-12-03T20:46:30.985Z,4.81
2018-12-03T20:49:35.605Z,4.85
2018-12-03T20:52:17.616Z,4.91
2018-12-03T20:54:50.342Z,4.75
2018-12-03T20:57:22.072Z,4.61
2018-12-03T20:59:53.936Z,4.57
2018-12-03T21:02:26.314Z,4.56
2018-12-03T21:04:57.987Z,4.60
2018-12-03T21:07:30.915Z,4.59
2018-12-03T21:10:02.727Z,4.63
2018-12-03T21:12:34.439Z,4.59
2018-12-03T21:15:06.327Z,4.67
2018-12-03T21:17:38.085Z,4.59
2018-12-03T21:20:22.221Z,4.62
2018-12-03T21:22:53.994Z,4.64
2018-12-03T21:25:25.766Z,4.65
2018-12-03T21:27:57.418Z,4.61
2018-12-03T21:30:29.254Z,4.57
2018-12-03T21:33:00.900Z,4.59
2018-12-03T21:35:32.694Z,4.53
2018-12-03T21:38:04.493Z,4.51
2018-12-03T21:40:36.282Z,4.50
2018-12-03T21:43:08.127Z,4.48
2018-12-03T21:45:39.820Z,4.42
2018-12-03T21:48:11.615Z,4.40
2018-12-03T21:50:43.285Z,4.41
2018-12-03T21:53:15.968Z,4.46
2018-12-03T21:55:47.694Z,4.40
2018-12-03T21:58:19.496Z,4.35
2018-12-03T22:00:51.252Z,4.35
2018-12-03T22:03:23.121Z,4.29
2018-12-03T22:05:54.750Z,4.29
2018-12-03T22:08:26.636Z,4.28
2018-12-03T22:10:58.754Z,4.29
2018-12-03T22:13:30.451Z,4.36
2018-12-03T22:16:02.235Z,4.35
2018-12-03T22:18:34.161Z,4.39
2018-12-03T22:21:06.141Z,4.42
2018-12-03T22:23:37.979Z,4.42
2018-12-03T22:26:09.860Z,4.48
2018-12-03T22:28:41.715Z,4.48
2018-12-03T22:31:13.578Z,4.43
2018-12-03T22:33:45.547Z,4.41
2018-12-03T22:36:17.338Z,4.33
2018-12-03T22:38:50.799Z,4.26
2018-12-03T22:41:22.524Z,4.19
2018-12-03T22:43:54.208Z,4.20
2018-12-03T22:46:25.846Z,4.19
2018-12-03T22:48:57.632Z,4.20
2018-12-03T22:51:29.517Z,4.15
2018-12-03T22:54:01.196Z,4.10
2018-12-03T22:56:33.046Z,4.05
2018-12-03T22:59:04.934Z,3.96
2018-12-03T23:01:36.706Z,3.92
2018-12-03T23:04:08.388Z,3.87
2018-12-03T23:06:40.241Z,3.85
2018-12-03T23:09:12.112Z,3.71
2018-12-03T23:11:43.943Z,3.70
2018-12-03T23:14:15.776Z,3.68
2018-12-03T23:16:47.628Z,3.63
2018-12-03T23:19:19.411Z,3.60
2018-12-03T23:21:51.265Z,3.62
2018-12-03T23:24:22.982Z,3.65
2018-12-03T23:26:54.747Z,3.66
2018-12-03T23:31:54.179Z,3.64
2018-12-03T23:34:24.829Z,3.70
2018-12-03T23:36:55.326Z,3.75
2018-12-03T23:39:25.799Z,3.77
2018-12-03T23:41:56.253Z,3.75
2018-12-03T23:44:26.847Z,3.72
2018-12-03T23:46:57.566Z,3.82
2018-12-03T23:49:28.136Z,3.84
2018-12-03T23:51:58.723Z,3.84
2018-12-03T23:54:29.287Z,3.85
2018-12-03T23:56:59.904Z,3.80
2018-12-03T23:59:30.474Z,3.83
